Time;durP1;ratioP1;P1;durP2;ratioP2;P2;SDS_P1;SDS_P2;PMS_P1;PMS_P2;Temp;Humidity;BMP_temperature;BMP_pressure;BME280_temperature;BME280_humidity;BME280_pressure;Samples;Min_cycle;Max_cycle;Signal;HPM_P1;HPM_P2
2024/04/14 00:02:01;;;;;;;14.63;9.10;;;;;;;;;;5485010;26;20408;-67
2024/04/14 00:04:27;;;;;;;13.60;8.70;;;;;;;;;;5484910;26;19998;-67
2024/04/14 00:06:53;;;;;;;14.00;9.63;;;;;;;;;;5482830;26;20328;-65
2024/04/14 00:09:19;;;;;;;13.80;9.25;;;;;;;;;;5484776;26;20005;-67
2024/04/14 00:11:45;;;;;;;14.63;9.68;;;;;;;;;;5484645;26;20005;-67
2024/04/14 00:14:11;;;;;;;14.20;9.60;;;;;;;;;;5482421;26;20068;-67
2024/04/14 00:16:38;;;;;;;13.80;9.30;;;;;;;;;;5485087;26;20478;-66
2024/04/14 00:19:04;;;;;;;14.10;10.43;;;;;;;;;;5484558;26;20010;-66
2024/04/14 00:21:30;;;;;;;13.73;9.05;;;;;;;;;;5484413;26;20070;-66
2024/04/14 00:23:56;;;;;;;13.70;9.10;;;;;;;;;;5484635;26;20453;-66
2024/04/14 00:26:22;;;;;;;14.10;9.75;;;;;;;;;;5484657;26;20001;-67
2024/04/14 00:28:49;;;;;;;13.70;9.02;;;;;;;;;;5485008;26;20676;-66
2024/04/14 00:31:15;;;;;;;13.60;8.70;;;;;;;;;;5482940;26;20002;-67
2024/04/14 00:33:41;;;;;;;13.57;8.65;;;;;;;;;;5484477;26;20489;-66
2024/04/14 00:36:08;;;;;;;13.52;8.48;;;;;;;;;;5483916;26;19998;-66
2024/04/14 00:38:34;;;;;;;13.60;8.68;;;;;;;;;;5484160;26;19990;-67
2024/04/14 00:41:00;;;;;;;13.63;8.88;;;;;;;;;;5484685;26;19998;-66
2024/04/14 00:43:26;;;;;;;13.48;8.50;;;;;;;;;;5484131;26;19994;-67
2024/04/14 00:45:53;;;;;;;14.00;9.38;;;;;;;;;;5484341;26;20006;-66
2024/04/14 00:48:19;;;;;;;13.52;8.60;;;;;;;;;;5484355;26;20443;-68
2024/04/14 00:50:46;;;;;;;13.57;8.70;;;;;;;;;;5482172;26;20009;-70
2024/04/14 00:53:13;;;;;;;13.50;8.43;;;;;;;;;;5483866;26;20079;-66
2024/04/14 00:55:40;;;;;;;13.50;8.50;;;;;;;;;;5484212;26;19994;-65
2024/04/14 00:58:06;;;;;;;13.80;9.02;;;;;;;;;;5483892;26;20074;-66
2024/04/14 01:00:33;;;;;;;13.57;8.50;;;;;;;;;;5483973;26;20012;-66
2024/04/14 01:02:59;;;;;;;13.80;9.23;;;;;;;;;;5484483;26;19994;-67
2024/04/14 01:05:26;;;;;;;13.48;8.30;;;;;;;;;;5482265;26;20090;-67
2024/04/14 01:07:52;;;;;;;13.65;8.50;;;;;;;;;;5484524;26;20071;-66
2024/04/14 01:10:20;;;;;;;13.40;8.07;;;;;;;;;;5482279;26;19994;-66
2024/04/14 01:12:46;;;;;;;13.40;8.10;;;;;;;;;;5482436;26;20009;-67
2024/04/14 01:15:12;;;;;;;13.40;8.10;;;;;;;;;;5482344;26;19994;-66
2024/04/14 01:17:38;;;;;;;13.30;7.90;;;;;;;;;;5483969;26;20002;-67
2024/04/14 01:20:04;;;;;;;13.25;7.90;;;;;;;;;;5484004;26;20416;-66
2024/04/14 01:22:30;;;;;;;13.32;7.90;;;;;;;;;;5484035;26;20424;-66
2024/04/14 01:25:06;;;;;;;13.35;7.90;;;;;;;;;;5483705;26;20019;-67
2024/04/14 01:27:32;;;;;;;13.40;7.90;;;;;;;;;;5481946;26;20005;-67
2024/04/14 01:29:58;;;;;;;13.35;8.00;;;;;;;;;;5483827;26;19998;-67
2024/04/14 01:32:24;;;;;;;13.32;7.90;;;;;;;;;;5483939;26;20071;-67
2024/04/14 01:34:50;;;;;;;13.27;7.80;;;;;;;;;;5481749;26;20070;-67
2024/04/14 01:37:16;;;;;;;13.30;7.90;;;;;;;;;;5483365;26;19994;-67
2024/04/14 01:39:42;;;;;;;13.27;7.80;;;;;;;;;;5483708;25;19990;-67
2024/04/14 01:42:08;;;;;;;14.98;10.00;;;;;;;;;;5483898;26;20066;-67
2024/04/14 01:44:34;;;;;;;13.38;8.00;;;;;;;;;;5483494;26;19994;-67
2024/04/14 01:47:00;;;;;;;13.27;7.90;;;;;;;;;;5483560;26;19994;-67
2024/04/14 01:49:26;;;;;;;13.35;7.90;;;;;;;;;;5482939;26;20445;-67
2024/04/14 01:51:52;;;;;;;13.32;7.88;;;;;;;;;;5483211;26;20009;-67
2024/04/14 01:54:18;;;;;;;13.35;8.05;;;;;;;;;;5482533;26;20050;-67
2024/04/14 01:56:44;;;;;;;13.30;7.90;;;;;;;;;;5481859;26;20498;-67
2024/04/14 01:59:10;;;;;;;13.18;7.80;;;;;;;;;;5483424;26;20002;-67
2024/04/14 02:01:36;;;;;;;13.00;7.55;;;;;;;;;;5482906;26;20013;-67
2024/04/14 02:04:03;;;;;;;13.80;8.30;;;;;;;;;;5482809;26;20361;-66
2024/04/14 02:06:28;;;;;;;13.10;7.60;;;;;;;;;;5483114;26;19990;-67
2024/04/14 02:08:54;;;;;;;12.77;7.40;;;;;;;;;;5483499;26;20062;-66
2024/04/14 02:11:20;;;;;;;12.80;7.50;;;;;;;;;;5483517;26;20009;-68
2024/04/14 02:13:47;;;;;;;12.45;7.28;;;;;;;;;;5482874;26;20067;-66
2024/04/14 02:16:13;;;;;;;12.75;7.38;;;;;;;;;;5482876;26;20086;-67
2024/04/14 02:18:40;;;;;;;13.18;7.70;;;;;;;;;;5482654;26;20002;-67
2024/04/14 02:21:06;;;;;;;12.50;7.30;;;;;;;;;;5482811;26;19994;-67
2024/04/14 02:23:32;;;;;;;12.57;7.50;;;;;;;;;;5482622;26;20064;-67
2024/04/14 02:25:58;;;;;;;12.75;7.40;;;;;;;;;;5482657;26;20487;-67
2024/04/14 02:28:24;;;;;;;12.80;7.50;;;;;;;;;;5482487;26;20460;-66
2024/04/14 02:30:51;;;;;;;12.88;7.50;;;;;;;;;;5480524;26;20444;-67
2024/04/14 02:33:17;;;;;;;13.07;7.75;;;;;;;;;;5482495;26;20000;-67
2024/04/14 02:35:55;;;;;;;13.30;7.72;;;;;;;;;;5482637;26;19990;-67
2024/04/14 02:38:22;;;;;;;12.90;7.47;;;;;;;;;;5482810;26;20105;-67
2024/04/14 02:41:00;;;;;;;12.93;7.50;;;;;;;;;;5480414;26;19998;-67
2024/04/14 02:43:26;;;;;;;12.63;7.32;;;;;;;;;;5482095;26;20055;-67
2024/04/14 02:45:53;;;;;;;12.73;7.45;;;;;;;;;;5482640;26;20528;-67
2024/04/14 02:48:19;;;;;;;12.23;7.10;;;;;;;;;;5482181;26;20062;-67
2024/04/14 02:50:46;;;;;;;12.27;7.10;;;;;;;;;;5482102;26;20075;-67
2024/04/14 02:53:12;;;;;;;12.13;7.00;;;;;;;;;;5482829;26;19990;-64
2024/04/14 02:55:38;;;;;;;12.55;7.28;;;;;;;;;;5480802;26;20005;-66
2024/04/14 02:58:05;;;;;;;12.30;7.30;;;;;;;;;;5482606;26;20021;-67
2024/04/14 03:00:31;;;;;;;12.60;7.78;;;;;;;;;;5482937;26;20022;-67
2024/04/14 03:02:57;;;;;;;12.38;7.20;;;;;;;;;;5480519;26;20006;-67
2024/04/14 03:05:23;;;;;;;12.20;7.10;;;;;;;;;;5482041;26;20363;-67
2024/04/14 03:07:49;;;;;;;12.23;7.10;;;;;;;;;;5485539;26;20006;-67
2024/04/14 03:10:15;;;;;;;12.57;7.30;;;;;;;;;;5486449;26;20444;-66
2024/04/14 03:12:41;;;;;;;12.18;7.18;;;;;;;;;;5485467;26;20332;-67
2024/04/14 03:15:07;;;;;;;12.50;7.28;;;;;;;;;;5485291;26;19994;-67
2024/04/14 03:17:33;;;;;;;12.18;7.10;;;;;;;;;;5485634;26;20005;-66
2024/04/14 03:20:00;;;;;;;12.43;7.45;;;;;;;;;;5485234;26;20063;-66
2024/04/14 03:22:26;;;;;;;12.05;7.05;;;;;;;;;;5485275;26;20062;-67
2024/04/14 03:24:52;;;;;;;12.30;7.20;;;;;;;;;;5485129;26;20013;-67
2024/04/14 03:27:18;;;;;;;12.55;7.25;;;;;;;;;;5485261;26;19998;-67
2024/04/14 03:29:46;;;;;;;12.23;7.13;;;;;;;;;;5485403;26;20608;-67
2024/04/14 03:32:12;;;;;;;12.02;6.97;;;;;;;;;;5485403;26;19998;-66
2024/04/14 03:34:38;;;;;;;15.65;7.97;;;;;;;;;;5484633;26;20074;-67
2024/04/14 03:37:07;;;;;;;12.20;7.35;;;;;;;;;;5485751;26;20006;-67
2024/04/14 03:39:33;;;;;;;11.80;6.90;;;;;;;;;;5486251;26;20024;-66
2024/04/14 03:41:59;;;;;;;11.98;7.00;;;;;;;;;;5485892;26;19998;-66
2024/04/14 03:44:27;;;;;;;11.98;7.00;;;;;;;;;;5484757;26;19998;-66
2024/04/14 03:46:53;;;;;;;12.00;6.97;;;;;;;;;;5484742;26;19994;-67
2024/04/14 03:49:19;;;;;;;12.05;7.03;;;;;;;;;;5484972;26;19987;-67
2024/04/14 03:51:45;;;;;;;12.27;7.20;;;;;;;;;;5484837;26;20006;-67
2024/04/14 03:54:11;;;;;;;12.23;7.10;;;;;;;;;;5484653;26;20458;-65
2024/04/14 03:56:37;;;;;;;12.38;7.30;;;;;;;;;;5483953;26;19998;-67
2024/04/14 03:59:03;;;;;;;12.23;7.10;;;;;;;;;;5484940;26;20004;-67
2024/04/14 04:01:29;;;;;;;12.27;7.10;;;;;;;;;;5483024;26;19994;-67
2024/04/14 04:03:55;;;;;;;12.25;7.10;;;;;;;;;;5484936;26;19994;-67
2024/04/14 04:06:21;;;;;;;12.00;7.05;;;;;;;;;;5485349;26;20089;-67
2024/04/14 04:08:47;;;;;;;11.77;6.85;;;;;;;;;;5485036;26;20452;-66
2024/04/14 04:11:13;;;;;;;11.60;6.80;;;;;;;;;;5485163;26;20058;-67
2024/04/14 04:13:39;;;;;;;11.45;6.72;;;;;;;;;;5484681;26;19986;-66
2024/04/14 04:16:06;;;;;;;11.50;6.70;;;;;;;;;;5484709;26;20057;-67
2024/04/14 04:18:33;;;;;;;11.73;6.88;;;;;;;;;;5483035;26;20062;-67
2024/04/14 04:21:00;;;;;;;11.40;6.70;;;;;;;;;;5484814;26;19990;-67
2024/04/14 04:23:26;;;;;;;11.40;6.70;;;;;;;;;;5484393;26;19997;-67
2024/04/14 04:25:55;;;;;;;11.50;6.80;;;;;;;;;;5484720;26;20001;-67
2024/04/14 04:28:21;;;;;;;11.50;6.82;;;;;;;;;;5484758;26;20361;-67
2024/04/14 04:30:47;;;;;;;11.55;6.78;;;;;;;;;;5484455;26;20333;-67
2024/04/14 04:33:12;;;;;;;11.40;6.70;;;;;;;;;;5484689;26;20041;-66
2024/04/14 04:35:38;;;;;;;11.00;6.40;;;;;;;;;;5485067;26;20001;-66
2024/04/14 04:38:04;;;;;;;10.75;6.30;;;;;;;;;;5484748;26;20021;-67
2024/04/14 04:40:31;;;;;;;11.55;6.70;;;;;;;;;;5484256;26;20014;-67
2024/04/14 04:42:57;;;;;;;11.90;7.00;;;;;;;;;;5483915;26;20059;-68
2024/04/14 04:45:23;;;;;;;11.52;6.75;;;;;;;;;;5484331;26;20619;-67
2024/04/14 04:47:49;;;;;;;12.05;7.10;;;;;;;;;;5484510;26;20001;-67
2024/04/14 04:50:15;;;;;;;12.00;7.00;;;;;;;;;;5484470;26;20045;-67
2024/04/14 04:52:41;;;;;;;12.35;7.30;;;;;;;;;;5482379;26;20001;-68
2024/04/14 04:55:07;;;;;;;11.80;6.90;;;;;;;;;;5495497;26;20023;-67
2024/04/14 04:57:33;;;;;;;11.77;6.90;;;;;;;;;;5504431;25;20699;-67
2024/04/14 04:59:59;;;;;;;12.18;7.15;;;;;;;;;;5496138;25;20153;-67
2024/04/14 05:02:25;;;;;;;11.75;6.85;;;;;;;;;;5484127;26;19986;-66
2024/04/14 05:04:54;;;;;;;12.05;7.00;;;;;;;;;;5517436;26;19993;-67
2024/04/14 05:07:20;;;;;;;12.10;7.20;;;;;;;;;;5521163;25;20502;-67
2024/04/14 05:09:46;;;;;;;13.13;8.35;;;;;;;;;;5520878;25;19993;-67
2024/04/14 05:12:11;;;;;;;12.75;7.40;;;;;;;;;;5505708;25;20058;-67
2024/04/14 05:14:38;;;;;;;12.85;7.53;;;;;;;;;;5483534;26;20042;-68
2024/04/14 05:17:04;;;;;;;13.05;7.55;;;;;;;;;;5483594;26;19990;-67
2024/04/14 05:19:30;;;;;;;13.15;7.65;;;;;;;;;;5483733;26;20428;-67
2024/04/14 05:21:56;;;;;;;13.80;8.60;;;;;;;;;;5483795;26;20028;-69
2024/04/14 05:24:21;;;;;;;12.85;7.45;;;;;;;;;;5483472;26;19994;-67
2024/04/14 05:26:48;;;;;;;13.07;7.70;;;;;;;;;;5481439;26;20448;-67
2024/04/14 05:29:14;;;;;;;13.10;7.60;;;;;;;;;;5499341;26;20476;-68
2024/04/14 05:31:40;;;;;;;13.98;8.00;;;;;;;;;;5520776;25;19989;-67
2024/04/14 05:34:06;;;;;;;12.70;7.45;;;;;;;;;;5521003;25;20017;-67
2024/04/14 05:36:32;;;;;;;12.70;7.30;;;;;;;;;;5520463;25;20001;-67
2024/04/14 05:38:58;;;;;;;12.60;7.32;;;;;;;;;;5520327;25;20057;-67
2024/04/14 05:41:24;;;;;;;11.95;7.00;;;;;;;;;;5519900;25;20004;-66
2024/04/14 05:43:50;;;;;;;12.77;7.45;;;;;;;;;;5520102;25;20061;-68
2024/04/14 05:46:16;;;;;;;13.07;7.63;;;;;;;;;;5520409;25;20455;-66
2024/04/14 05:48:42;;;;;;;12.93;7.63;;;;;;;;;;5519506;25;20064;-68
2024/04/14 05:51:08;;;;;;;12.73;7.40;;;;;;;;;;5520201;25;20008;-67
2024/04/14 05:53:34;;;;;;;13.30;7.80;;;;;;;;;;5520043;25;19989;-67
2024/04/14 05:56:00;;;;;;;12.65;7.35;;;;;;;;;;5520231;25;20071;-67
2024/04/14 05:58:26;;;;;;;13.00;7.50;;;;;;;;;;5520890;25;20001;-68
2024/04/14 06:00:52;;;;;;;13.20;7.70;;;;;;;;;;5520770;25;19994;-67
2024/04/14 06:03:18;;;;;;;13.30;7.90;;;;;;;;;;5520594;25;20065;-66
2024/04/14 06:05:48;;;;;;;13.50;8.38;;;;;;;;;;5520389;25;19994;-67
2024/04/14 06:08:14;;;;;;;13.32;7.80;;;;;;;;;;5520250;25;20124;-69
2024/04/14 06:10:40;;;;;;;13.38;7.97;;;;;;;;;;5519269;25;19994;-67
2024/04/14 06:13:06;;;;;;;13.38;7.90;;;;;;;;;;5520345;25;19993;-68
2024/04/14 06:15:32;;;;;;;13.45;8.30;;;;;;;;;;5520369;25;20061;-67
2024/04/14 06:17:58;;;;;;;13.70;8.90;;;;;;;;;;5520936;25;20339;-67
2024/04/14 06:20:24;;;;;;;13.75;9.02;;;;;;;;;;5520753;25;20001;-67
2024/04/14 06:22:50;;;;;;;13.65;8.93;;;;;;;;;;5517993;26;19997;-68
2024/04/14 06:25:16;;;;;;;13.70;9.00;;;;;;;;;;5519482;25;19998;-67
2024/04/14 06:27:42;;;;;;;13.80;9.00;;;;;;;;;;5519699;25;20437;-68
2024/04/14 06:30:08;;;;;;;13.70;8.85;;;;;;;;;;5519934;25;20013;-66
2024/04/14 06:32:34;;;;;;;13.65;8.90;;;;;;;;;;5519884;25;20322;-67
2024/04/14 06:35:00;;;;;;;13.75;8.98;;;;;;;;;;5519202;25;19998;-67
2024/04/14 06:37:26;;;;;;;13.73;8.98;;;;;;;;;;5519699;25;19996;-67
2024/04/14 06:39:52;;;;;;;13.80;9.25;;;;;;;;;;5519533;25;19993;-68
2024/04/14 06:42:18;;;;;;;13.77;9.05;;;;;;;;;;5522023;25;20077;-67
2024/04/14 06:44:44;;;;;;;13.70;9.00;;;;;;;;;;5523496;25;19993;-68
2024/04/14 06:47:10;;;;;;;14.02;9.88;;;;;;;;;;5523412;25;19994;-69
2024/04/14 06:49:36;;;;;;;13.82;9.32;;;;;;;;;;5523364;25;20340;-68
2024/04/14 06:52:02;;;;;;;13.77;9.27;;;;;;;;;;5522868;25;19989;-68
2024/04/14 06:54:28;;;;;;;13.80;9.40;;;;;;;;;;5522456;25;19997;-67
2024/04/14 06:56:54;;;;;;;13.98;9.75;;;;;;;;;;5509011;25;20010;-67
2024/04/14 06:59:21;;;;;;;13.93;9.57;;;;;;;;;;5486429;26;19994;-68
2024/04/14 07:01:47;;;;;;;13.90;9.45;;;;;;;;;;5485759;26;19994;-67
2024/04/14 07:04:13;;;;;;;14.40;10.68;;;;;;;;;;5485301;26;20005;-67
2024/04/14 07:06:39;;;;;;;14.50;9.77;;;;;;;;;;5485511;26;19994;-67
2024/04/14 07:09:05;;;;;;;14.63;9.73;;;;;;;;;;5485728;26;20447;-67
2024/04/14 07:11:31;;;;;;;13.70;8.98;;;;;;;;;;5485952;26;20088;-67
2024/04/14 07:13:57;;;;;;;13.73;9.02;;;;;;;;;;5485270;26;19986;-65
2024/04/14 07:16:23;;;;;;;23.77;10.48;;;;;;;;;;5485375;26;20038;-67
2024/04/14 07:18:49;;;;;;;13.73;9.05;;;;;;;;;;5484734;26;20033;-67
2024/04/14 07:21:15;;;;;;;13.75;9.00;;;;;;;;;;5486373;26;19998;-67
2024/04/14 07:23:41;;;;;;;13.63;8.85;;;;;;;;;;5485696;26;20457;-68
2024/04/14 07:26:07;;;;;;;13.82;9.25;;;;;;;;;;5485864;26;20004;-67
2024/04/14 07:28:33;;;;;;;13.68;8.95;;;;;;;;;;5485894;26;19996;-67
2024/04/14 07:30:59;;;;;;;13.50;8.32;;;;;;;;;;5485111;26;19990;-68
2024/04/14 07:33:24;;;;;;;13.45;8.43;;;;;;;;;;5485299;26;20456;-66
2024/04/14 07:35:51;;;;;;;13.43;8.30;;;;;;;;;;5485838;26;19991;-68
2024/04/14 07:38:16;;;;;;;13.60;8.80;;;;;;;;;;5485049;26;19998;-67
2024/04/14 07:40:42;;;;;;;13.65;8.82;;;;;;;;;;5484552;26;20451;-65
2024/04/14 07:43:08;;;;;;;13.88;8.80;;;;;;;;;;5484849;26;20006;-66
2024/04/14 07:45:37;;;;;;;13.43;8.10;;;;;;;;;;5484992;26;19994;-67
2024/04/14 07:48:03;;;;;;;13.50;8.40;;;;;;;;;;5484774;26;20030;-66
2024/04/14 07:50:29;;;;;;;13.43;8.18;;;;;;;;;;5484391;26;20006;-66
2024/04/14 07:52:55;;;;;;;13.25;8.40;;;;;;;;;;5483212;26;20009;-67
2024/04/14 07:55:21;;;;;;;13.65;8.70;;;;;;;;;;5485169;26;19994;-66
2024/04/14 07:57:47;;;;;;;13.43;8.20;;;;;;;;;;5485232;26;20016;-66
2024/04/14 08:00:13;;;;;;;13.52;8.35;;;;;;;;;;5484856;26;20058;-66
2024/04/14 08:02:41;;;;;;;13.90;8.70;;;;;;;;;;5484890;26;19994;-66
2024/04/14 08:05:08;;;;;;;14.02;8.50;;;;;;;;;;5484782;26;20080;-66
2024/04/14 08:07:33;;;;;;;13.40;8.20;;;;;;;;;;5484811;26;20360;-65
2024/04/14 08:09:59;;;;;;;13.45;8.15;;;;;;;;;;5484937;26;19998;-58
2024/04/14 08:12:27;;;;;;;13.32;8.07;;;;;;;;;;5485228;26;20363;-59
2024/04/14 08:14:53;;;;;;;13.60;8.50;;;;;;;;;;5485236;26;20047;-59
2024/04/14 08:17:19;;;;;;;13.45;8.30;;;;;;;;;;5485215;26;19998;-59
2024/04/14 08:19:45;;;;;;;13.43;8.30;;;;;;;;;;5485300;26;19997;-57
2024/04/14 08:22:11;;;;;;;13.40;8.30;;;;;;;;;;5484871;26;20017;-59
2024/04/14 08:24:37;;;;;;;13.45;8.25;;;;;;;;;;5484911;26;19994;-60
2024/04/14 08:27:03;;;;;;;13.38;8.07;;;;;;;;;;5485405;26;20004;-59
2024/04/14 08:29:29;;;;;;;18.27;9.43;;;;;;;;;;5485487;26;20001;-59
2024/04/14 08:31:56;;;;;;;13.57;8.50;;;;;;;;;;5485920;26;19994;-59
2024/04/14 08:34:22;;;;;;;13.27;8.02;;;;;;;;;;5484903;26;19996;-56
2024/04/14 08:36:48;;;;;;;13.38;8.10;;;;;;;;;;5495209;26;20053;-58
2024/04/14 08:39:14;;;;;;;13.32;7.90;;;;;;;;;;5520053;26;19989;-60
2024/04/14 08:41:42;;;;;;;16.50;9.25;;;;;;;;;;5498755;25;19998;-59
2024/04/14 08:44:10;;;;;;;13.48;8.30;;;;;;;;;;5484957;26;19990;-57
2024/04/14 08:46:37;;;;;;;13.38;7.97;;;;;;;;;;5485393;26;19994;-59
2024/04/14 08:49:03;;;;;;;13.35;7.90;;;;;;;;;;5485089;26;20001;-61
2024/04/14 08:51:30;;;;;;;14.90;8.90;;;;;;;;;;5484585;26;20062;-66
2024/04/14 08:53:57;;;;;;;13.48;8.23;;;;;;;;;;5484333;26;20080;-66
2024/04/14 08:56:27;;;;;;;13.40;8.00;;;;;;;;;;5490509;26;20111;-67
2024/04/14 08:58:58;;;;;;;13.25;7.80;;;;;;;;;;5521255;25;20013;-68
2024/04/14 09:01:24;;;;;;;13.13;7.80;;;;;;;;;;5521495;25;20058;-67
2024/04/14 09:03:52;;;;;;;13.15;7.82;;;;;;;;;;5520684;25;19993;-67
2024/04/14 09:06:18;;;;;;;13.27;8.20;;;;;;;;;;5520962;25;20066;-68
2024/04/14 09:08:44;;;;;;;13.38;7.97;;;;;;;;;;5520826;25;19998;-67
2024/04/14 09:11:10;;;;;;;13.40;8.18;;;;;;;;;;5519369;25;19986;-67
2024/04/14 09:13:37;;;;;;;13.52;8.40;;;;;;;;;;5514785;25;20371;-68
2024/04/14 09:16:03;;;;;;;13.38;8.10;;;;;;;;;;5516873;25;19989;-67
2024/04/14 09:18:29;;;;;;;14.32;8.68;;;;;;;;;;5514999;25;19993;-68
2024/04/14 09:20:55;;;;;;;13.05;7.70;;;;;;;;;;5517198;25;19985;-68
2024/04/14 09:23:21;;;;;;;13.45;8.23;;;;;;;;;;5517085;25;19997;-67
2024/04/14 09:25:47;;;;;;;13.43;8.20;;;;;;;;;;5517210;25;20004;-66
2024/04/14 09:28:14;;;;;;;13.38;8.02;;;;;;;;;;5517785;25;19989;-67
2024/04/14 09:30:40;;;;;;;13.45;8.38;;;;;;;;;;5516587;25;20053;-67
2024/04/14 09:33:06;;;;;;;13.70;8.60;;;;;;;;;;5517748;25;20399;-67
2024/04/14 09:35:34;;;;;;;13.63;8.70;;;;;;;;;;5520090;25;20426;-67
2024/04/14 09:38:00;;;;;;;14.52;8.60;;;;;;;;;;5520021;25;20021;-66
2024/04/14 09:40:26;;;;;;;13.55;8.50;;;;;;;;;;5519633;25;19989;-66
2024/04/14 09:42:57;;;;;;;13.60;8.63;;;;;;;;;;5520116;25;20444;-67
2024/04/14 09:45:28;;;;;;;13.50;8.50;;;;;;;;;;5520291;25;19989;-68
2024/04/14 09:47:55;;;;;;;13.80;9.35;;;;;;;;;;5521019;25;20047;-68
2024/04/14 09:50:21;;;;;;;13.60;8.70;;;;;;;;;;5520280;25;20000;-65
2024/04/14 09:52:49;;;;;;;13.57;8.68;;;;;;;;;;5519583;25;20008;-68
2024/04/14 09:55:15;;;;;;;13.90;9.18;;;;;;;;;;5519925;25;19997;-68
2024/04/14 09:57:41;;;;;;;13.70;8.85;;;;;;;;;;5520005;25;19993;-67
2024/04/14 10:00:08;;;;;;;13.60;8.85;;;;;;;;;;5519571;25;20026;-68
2024/04/14 10:02:55;;;;;;;13.60;8.63;;;;;;;;;;5519452;25;20393;-68
2024/04/14 10:05:21;;;;;;;13.60;8.65;;;;;;;;;;5519507;25;20330;-68
2024/04/14 10:07:49;;;;;;;13.75;8.60;;;;;;;;;;5519304;25;20058;-68
2024/04/14 10:10:16;;;;;;;13.60;8.73;;;;;;;;;;5519182;25;19990;-67
2024/04/14 10:12:42;;;;;;;13.55;8.48;;;;;;;;;;5519545;25;20409;-68
2024/04/14 10:15:08;;;;;;;14.38;9.52;;;;;;;;;;5518672;25;19986;-70
2024/04/14 10:17:34;;;;;;;13.57;8.60;;;;;;;;;;5522554;25;20062;-69
2024/04/14 10:20:07;;;;;;;13.60;8.73;;;;;;;;;;5522644;25;20004;-68
2024/04/14 10:22:40;;;;;;;13.80;9.23;;;;;;;;;;5523061;25;19997;-66
2024/04/14 10:25:17;;;;;;;13.80;9.23;;;;;;;;;;5522458;25;19993;-67
2024/04/14 10:27:43;;;;;;;13.77;9.20;;;;;;;;;;5522795;25;20086;-67
2024/04/14 10:30:10;;;;;;;13.75;9.10;;;;;;;;;;5522608;25;20174;-68
2024/04/14 10:32:36;;;;;;;14.00;9.27;;;;;;;;;;5522943;25;19993;-67
2024/04/14 10:35:12;;;;;;;13.68;8.90;;;;;;;;;;5522302;25;20644;-67
2024/04/14 10:37:38;;;;;;;13.57;8.68;;;;;;;;;;5519658;25;19985;-69
2024/04/14 10:40:05;;;;;;;13.68;9.00;;;;;;;;;;5522459;25;20420;-69
2024/04/14 10:42:32;;;;;;;13.55;8.50;;;;;;;;;;5522597;25;19997;-67
2024/04/14 10:44:58;;;;;;;13.80;8.70;;;;;;;;;;5523124;25;20001;-67
2024/04/14 10:47:24;;;;;;;13.65;8.90;;;;;;;;;;5522709;25;19989;-67
2024/04/14 10:49:51;;;;;;;13.57;8.80;;;;;;;;;;5522721;25;20005;-69
2024/04/14 10:52:17;;;;;;;13.68;8.90;;;;;;;;;;5522284;25;20097;-68
2024/04/14 10:54:43;;;;;;;13.65;8.98;;;;;;;;;;5522291;25;20397;-67
2024/04/14 10:57:09;;;;;;;13.80;9.30;;;;;;;;;;5504855;25;20047;-67
2024/04/14 10:59:36;;;;;;;13.80;9.27;;;;;;;;;;5486023;26;19998;-66
2024/04/14 11:02:04;;;;;;;13.65;8.95;;;;;;;;;;5112160;25;10000493;-65
2024/04/14 11:04:30;;;;;;;13.70;9.10;;;;;;;;;;5514225;25;20342;-67
2024/04/14 11:06:56;;;;;;;13.90;9.50;;;;;;;;;;5512230;26;20062;-67
2024/04/14 11:09:23;;;;;;;15.43;11.95;;;;;;;;;;5498248;26;20708;-67
2024/04/14 11:11:49;;;;;;;13.77;9.27;;;;;;;;;;5483311;26;20360;-68
2024/04/14 11:14:20;;;;;;;14.10;9.88;;;;;;;;;;5484156;26;20452;-66
2024/04/14 11:16:46;;;;;;;13.85;9.52;;;;;;;;;;5513459;26;20644;-66
2024/04/14 11:19:12;;;;;;;13.75;9.13;;;;;;;;;;5519713;25;20683;-66
2024/04/14 11:21:38;;;;;;;13.80;9.30;;;;;;;;;;5520618;25;20638;-67
2024/04/14 11:24:08;;;;;;;13.75;9.13;;;;;;;;;;5510865;25;19994;-67
2024/04/14 11:26:34;;;;;;;13.73;9.20;;;;;;;;;;5483777;26;20350;-67
2024/04/14 11:29:00;;;;;;;13.73;9.00;;;;;;;;;;5485053;26;20008;-66
2024/04/14 11:31:26;;;;;;;13.68;9.10;;;;;;;;;;5485160;26;20002;-65
2024/04/14 11:33:55;;;;;;;13.88;9.55;;;;;;;;;;5485895;26;19998;-68
2024/04/14 11:36:21;;;;;;;13.88;9.40;;;;;;;;;;5493236;26;20000;-68
2024/04/14 11:38:48;;;;;;;14.00;9.90;;;;;;;;;;5522665;25;19993;-68
2024/04/14 11:41:14;;;;;;;14.93;10.10;;;;;;;;;;5524484;25;20004;-69
2024/04/14 11:43:41;;;;;;;14.45;10.65;;;;;;;;;;5523063;25;19993;-68
2024/04/14 11:46:07;;;;;;;14.05;9.75;;;;;;;;;;5523083;25;20714;-69
2024/04/14 11:48:33;;;;;;;14.07;9.93;;;;;;;;;;5522874;25;20004;-70
2024/04/14 11:50:59;;;;;;;14.18;10.23;;;;;;;;;;5504546;26;19993;-71
2024/04/14 11:53:25;;;;;;;14.50;10.48;;;;;;;;;;5497406;26;19996;-69
2024/04/14 11:55:51;;;;;;;13.95;9.75;;;;;;;;;;5485271;26;20352;-68
2024/04/14 11:58:22;;;;;;;14.02;10.00;;;;;;;;;;5486739;26;19998;-70
2024/04/14 12:00:48;;;;;;;16.50;12.25;;;;;;;;;;5485318;26;20320;-70
2024/04/14 12:03:14;;;;;;;14.00;9.90;;;;;;;;;;5486465;26;19990;-68
2024/04/14 12:05:40;;;;;;;13.98;9.80;;;;;;;;;;5487713;26;19994;-67
2024/04/14 12:08:06;;;;;;;14.20;10.43;;;;;;;;;;5486760;26;20501;-68
2024/04/14 12:10:32;;;;;;;13.90;9.65;;;;;;;;;;5486640;26;19998;-69
2024/04/14 12:12:58;;;;;;;14.10;10.05;;;;;;;;;;5486590;26;20355;-67
2024/04/14 12:15:24;;;;;;;14.07;10.00;;;;;;;;;;5487079;26;20006;-66
2024/04/14 12:17:50;;;;;;;14.30;10.40;;;;;;;;;;5486947;26;20016;-68
2024/04/14 12:20:16;;;;;;;14.25;10.43;;;;;;;;;;5485487;26;20362;-68
2024/04/14 12:22:42;;;;;;;14.10;10.05;;;;;;;;;;5486817;26;19994;-68
2024/04/14 12:25:08;;;;;;;15.05;10.90;;;;;;;;;;5486743;26;20328;-67
2024/04/14 12:27:34;;;;;;;14.20;10.30;;;;;;;;;;5486439;26;20004;-67
2024/04/14 12:30:00;;;;;;;14.10;10.20;;;;;;;;;;5487257;26;20005;-66
2024/04/14 12:32:27;;;;;;;14.95;10.02;;;;;;;;;;5484730;26;19993;-65
2024/04/14 12:34:53;;;;;;;13.70;9.23;;;;;;;;;;5484456;26;20067;-65
2024/04/14 12:37:19;;;;;;;14.00;9.80;;;;;;;;;;5483970;26;20027;-66
2024/04/14 12:39:45;;;;;;;13.80;9.30;;;;;;;;;;5482630;26;20375;-66
2024/04/14 12:42:11;;;;;;;13.88;9.52;;;;;;;;;;5484917;26;19998;-67
2024/04/14 12:44:37;;;;;;;14.15;10.02;;;;;;;;;;5484047;26;20010;-66
2024/04/14 12:47:03;;;;;;;14.20;10.63;;;;;;;;;;5483905;26;20002;-65
2024/04/14 12:49:29;;;;;;;18.27;10.55;;;;;;;;;;5483747;26;20045;-66
2024/04/14 12:51:59;;;;;;;14.77;9.80;;;;;;;;;;5483351;26;20001;-66
2024/04/14 12:54:26;;;;;;;14.70;9.68;;;;;;;;;;5483641;26;19994;-66
2024/04/14 12:56:52;;;;;;;13.80;9.25;;;;;;;;;;5496604;26;20005;-65
2024/04/14 12:59:18;;;;;;;14.27;9.88;;;;;;;;;;5520487;25;19993;-67
2024/04/14 13:01:44;;;;;;;13.98;9.70;;;;;;;;;;5520116;25;20013;-66
2024/04/14 13:04:10;;;;;;;13.90;9.60;;;;;;;;;;5520495;25;20005;-66
2024/04/14 13:06:36;;;;;;;13.90;9.65;;;;;;;;;;5520828;25;20328;-65
2024/04/14 13:09:02;;;;;;;14.30;10.60;;;;;;;;;;5521043;25;20005;-65
2024/04/14 13:11:30;;;;;;;14.00;9.85;;;;;;;;;;5521402;25;20452;-66
2024/04/14 13:13:56;;;;;;;19.45;10.50;;;;;;;;;;5520734;25;20030;-65
2024/04/14 13:16:22;;;;;;;14.38;10.20;;;;;;;;;;5519938;25;20333;-64
2024/04/14 13:18:48;;;;;;;14.00;9.80;;;;;;;;;;5518392;26;19994;-65
2024/04/14 13:21:17;;;;;;;14.10;10.05;;;;;;;;;;5519214;25;20033;-64
2024/04/14 13:23:46;;;;;;;13.93;9.73;;;;;;;;;;5519412;25;20325;-67
2024/04/14 13:26:12;;;;;;;14.02;10.02;;;;;;;;;;5520128;25;20086;-65
2024/04/14 13:28:38;;;;;;;14.15;10.25;;;;;;;;;;5518148;26;19985;-66
2024/04/14 13:31:04;;;;;;;14.00;9.85;;;;;;;;;;5519957;25;20004;-64
2024/04/14 13:33:30;;;;;;;14.07;10.00;;;;;;;;;;5519604;25;20021;-66
2024/04/14 13:35:56;;;;;;;14.10;10.13;;;;;;;;;;5517858;26;20364;-67
2024/04/14 13:38:22;;;;;;;14.20;10.40;;;;;;;;;;5520651;25;20013;-66
2024/04/14 13:40:48;;;;;;;14.50;11.10;;;;;;;;;;5520299;25;19993;-66
2024/04/14 13:43:14;;;;;;;14.20;10.35;;;;;;;;;;5515727;26;20420;-67
2024/04/14 13:45:40;;;;;;;14.18;10.07;;;;;;;;;;5518090;25;20001;-65
2024/04/14 13:48:06;;;;;;;14.07;9.98;;;;;;;;;;5516942;25;19989;-67
2024/04/14 13:50:32;;;;;;;14.23;10.10;;;;;;;;;;5518832;25;20127;-72
2024/04/14 13:52:59;;;;;;;14.20;10.60;;;;;;;;;;5519448;25;19993;-66
2024/04/14 13:55:25;;;;;;;14.00;9.82;;;;;;;;;;5519574;25;19989;-65
2024/04/14 13:57:51;;;;;;;13.98;9.80;;;;;;;;;;5519721;25;20011;-66
2024/04/14 14:00:21;;;;;;;14.02;9.90;;;;;;;;;;5517135;25;20341;-67
2024/04/14 14:02:47;;;;;;;13.95;9.65;;;;;;;;;;5519613;25;20001;-66
2024/04/14 14:05:13;;;;;;;14.95;9.77;;;;;;;;;;5519392;25;20069;-66
2024/04/14 14:07:39;;;;;;;14.13;10.20;;;;;;;;;;5520199;25;20427;-66
2024/04/14 14:10:05;;;;;;;13.98;9.88;;;;;;;;;;5519382;25;20457;-66
2024/04/14 14:12:31;;;;;;;14.00;9.75;;;;;;;;;;5519577;25;19997;-66
2024/04/14 14:14:57;;;;;;;15.02;10.75;;;;;;;;;;5518703;25;20478;-67
2024/04/14 14:17:23;;;;;;;14.05;10.00;;;;;;;;;;5519536;25;19993;-67
2024/04/14 14:19:51;;;;;;;13.90;9.70;;;;;;;;;;5519402;26;20345;-65
2024/04/14 14:22:17;;;;;;;14.07;10.07;;;;;;;;;;5519212;26;19994;-66
2024/04/14 14:24:43;;;;;;;14.18;10.40;;;;;;;;;;5519553;26;20008;-66